sensor_id;sensor_type;location;lat;lon;timestamp;pressure;altitude;pressure_sealevel;temperature;humidity
61292;BME280;47165;42.664;23.368;2022-12-18T00:01:02;95760.41;;;7.82;76.20
61292;BME280;47165;42.664;23.368;2022-12-18T00:03:32;95767.69;;;7.97;76.50
61292;BME280;47165;42.664;23.368;2022-12-18T00:05:58;95775.59;;;7.69;76.39
61292;BME280;47165;42.664;23.368;2022-12-18T00:08:23;95770.44;;;7.41;76.56
61292;BME280;47165;42.664;23.368;2022-12-18T00:10:49;95775.66;;;7.39;77.17
61292;BME280;47165;42.664;23.368;2022-12-18T00:13:14;95773.22;;;7.07;77.38
61292;BME280;47165;42.664;23.368;2022-12-18T00:15:40;95788.19;;;7.55;76.63
61292;BME280;47165;42.664;23.368;2022-12-18T00:18:05;95796.09;;;7.50;76.18
61292;BME280;47165;42.664;23.368;2022-12-18T00:20:31;95786.88;;;7.41;76.88
61292;BME280;47165;42.664;23.368;2022-12-18T00:23:00;95787.47;;;7.50;75.27
61292;BME280;47165;42.664;23.368;2022-12-18T00:25:25;95792.94;;;7.14;77.08
61292;BME280;47165;42.664;23.368;2022-12-18T00:27:51;95802.38;;;7.44;76.02
61292;BME280;47165;42.664;23.368;2022-12-18T00:30:16;95802.69;;;7.34;76.54
61292;BME280;47165;42.664;23.368;2022-12-18T00:32:42;95806.22;;;7.03;77.00
61292;BME280;47165;42.664;23.368;2022-12-18T00:35:07;95805.25;;;7.35;76.10
61292;BME280;47165;42.664;23.368;2022-12-18T00:37:33;95798.13;;;7.14;76.54
61292;BME280;47165;42.664;23.368;2022-12-18T00:39:59;95805.50;;;6.99;76.94
61292;BME280;47165;42.664;23.368;2022-12-18T00:42:24;95791.81;;;6.93;76.94
61292;BME280;47165;42.664;23.368;2022-12-18T00:45:08;95817.53;;;7.30;75.69
61292;BME280;47165;42.664;23.368;2022-12-18T00:47:34;95807.41;;;7.21;75.82
61292;BME280;47165;42.664;23.368;2022-12-18T00:49:59;95809.38;;;7.42;75.02
61292;BME280;47165;42.664;23.368;2022-12-18T00:52:24;95806.22;;;7.03;76.05
61292;BME280;47165;42.664;23.368;2022-12-18T00:54:50;95817.56;;;7.00;75.71
61292;BME280;47165;42.664;23.368;2022-12-18T00:57:15;95820.53;;;6.58;76.84
61292;BME280;47165;42.664;23.368;2022-12-18T00:59:41;95827.78;;;6.77;76.67
61292;BME280;47165;42.664;23.368;2022-12-18T01:02:06;95812.91;;;7.12;75.25
61292;BME280;47165;42.664;23.368;2022-12-18T01:04:32;95816.78;;;7.27;74.56
61292;BME280;47165;42.664;23.368;2022-12-18T01:06:58;95823.25;;;7.41;73.68
61292;BME280;47165;42.664;23.368;2022-12-18T01:09:24;95824.19;;;7.11;73.78
61292;BME280;47165;42.664;23.368;2022-12-18T01:11:49;95828.72;;;7.32;73.40
61292;BME280;47165;42.664;23.368;2022-12-18T01:14:14;95839.00;;;7.35;72.80
61292;BME280;47165;42.664;23.368;2022-12-18T01:16:40;95832.50;;;6.92;74.81
61292;BME280;47165;42.664;23.368;2022-12-18T01:19:06;95840.66;;;7.10;74.12
61292;BME280;47165;42.664;23.368;2022-12-18T01:21:31;95825.25;;;6.74;74.55
61292;BME280;47165;42.664;23.368;2022-12-18T01:23:56;95848.66;;;6.41;76.38
61292;BME280;47165;42.664;23.368;2022-12-18T01:26:23;95825.38;;;6.71;75.14
61292;BME280;47165;42.664;23.368;2022-12-18T01:28:49;95832.78;;;6.83;74.33
61292;BME280;47165;42.664;23.368;2022-12-18T01:31:22;95834.31;;;6.60;74.20
61292;BME280;47165;42.664;23.368;2022-12-18T01:33:48;95841.09;;;6.64;74.44
61292;BME280;47165;42.664;23.368;2022-12-18T01:36:30;95845.84;;;6.49;74.28
61292;BME280;47165;42.664;23.368;2022-12-18T01:38:56;95850.47;;;6.37;74.97
61292;BME280;47165;42.664;23.368;2022-12-18T01:41:25;95837.84;;;6.25;76.01
61292;BME280;47165;42.664;23.368;2022-12-18T01:43:56;95852.06;;;6.43;75.40
61292;BME280;47165;42.664;23.368;2022-12-18T01:46:23;95857.03;;;6.51;75.02
61292;BME280;47165;42.664;23.368;2022-12-18T01:48:52;95856.63;;;6.33;74.91
61292;BME280;47165;42.664;23.368;2022-12-18T01:51:18;95864.06;;;6.14;75.51
61292;BME280;47165;42.664;23.368;2022-12-18T01:53:44;95852.31;;;6.34;75.74
61292;BME280;47165;42.664;23.368;2022-12-18T01:56:16;95853.50;;;6.22;76.19
61292;BME280;47165;42.664;23.368;2022-12-18T02:01:20;95863.66;;;6.30;75.20
61292;BME280;47165;42.664;23.368;2022-12-18T02:03:46;95865.06;;;6.41;74.71
61292;BME280;47165;42.664;23.368;2022-12-18T02:06:20;95851.19;;;6.44;74.85
61292;BME280;47165;42.664;23.368;2022-12-18T02:09:00;95859.50;;;6.55;73.94
61292;BME280;47165;42.664;23.368;2022-12-18T02:11:40;95869.97;;;5.83;75.94
61292;BME280;47165;42.664;23.368;2022-12-18T02:14:38;95867.94;;;6.31;75.10
61292;BME280;47165;42.664;23.368;2022-12-18T02:17:12;95879.56;;;6.50;74.51
61292;BME280;47165;42.664;23.368;2022-12-18T02:22:34;95882.06;;;6.19;75.80
61292;BME280;47165;42.664;23.368;2022-12-18T02:28:08;95889.75;;;6.56;73.94
61292;BME280;47165;42.664;23.368;2022-12-18T02:30:35;95891.38;;;6.60;73.50
61292;BME280;47165;42.664;23.368;2022-12-18T02:33:04;95888.63;;;6.67;73.12
61292;BME280;47165;42.664;23.368;2022-12-18T02:35:32;95879.13;;;6.65;73.04
61292;BME280;47165;42.664;23.368;2022-12-18T02:37:59;95893.06;;;6.61;72.90
61292;BME280;47165;42.664;23.368;2022-12-18T02:40:27;95896.09;;;6.46;73.11
61292;BME280;47165;42.664;23.368;2022-12-18T02:42:53;95898.16;;;5.99;75.22
61292;BME280;47165;42.664;23.368;2022-12-18T02:45:19;95884.84;;;5.75;75.90
61292;BME280;47165;42.664;23.368;2022-12-18T02:47:47;95907.75;;;5.92;75.86
61292;BME280;47165;42.664;23.368;2022-12-18T02:50:24;95902.63;;;6.27;75.05
61292;BME280;47165;42.664;23.368;2022-12-18T02:53:03;95896.25;;;6.40;74.26
61292;BME280;47165;42.664;23.368;2022-12-18T03:01:17;95909.22;;;6.06;74.85
61292;BME280;47165;42.664;23.368;2022-12-18T03:03:54;95905.38;;;6.20;74.01
61292;BME280;47165;42.664;23.368;2022-12-18T03:06:25;95907.88;;;5.52;77.02
61292;BME280;47165;42.664;23.368;2022-12-18T03:08:57;95915.41;;;6.00;75.66
61292;BME280;47165;42.664;23.368;2022-12-18T03:11:24;95921.94;;;5.77;76.59
61292;BME280;47165;42.664;23.368;2022-12-18T03:14:13;95934.44;;;5.99;75.36
61292;BME280;47165;42.664;23.368;2022-12-18T03:16:41;95941.28;;;6.01;75.04
61292;BME280;47165;42.664;23.368;2022-12-18T03:19:15;95929.31;;;5.96;75.21
61292;BME280;47165;42.664;23.368;2022-12-18T03:21:47;95921.69;;;5.88;75.40
61292;BME280;47165;42.664;23.368;2022-12-18T03:24:15;95921.41;;;6.02;75.01
61292;BME280;47165;42.664;23.368;2022-12-18T03:26:45;95927.22;;;6.12;74.51
61292;BME280;47165;42.664;23.368;2022-12-18T03:29:20;95940.88;;;6.18;73.83
61292;BME280;47165;42.664;23.368;2022-12-18T03:31:53;95940.88;;;6.18;73.25
61292;BME280;47165;42.664;23.368;2022-12-18T03:34:23;95943.03;;;6.01;73.66
61292;BME280;47165;42.664;23.368;2022-12-18T03:36:51;95947.16;;;6.08;73.17
61292;BME280;47165;42.664;23.368;2022-12-18T03:39:17;95943.56;;;5.76;73.67
61292;BME280;47165;42.664;23.368;2022-12-18T03:44:45;95954.34;;;5.58;74.98
61292;BME280;47165;42.664;23.368;2022-12-18T03:47:19;95951.09;;;5.87;73.97
61292;BME280;47165;42.664;23.368;2022-12-18T03:52:58;95958.97;;;5.82;73.20
61292;BME280;47165;42.664;23.368;2022-12-18T03:55:28;95970.13;;;5.86;72.52
61292;BME280;47165;42.664;23.368;2022-12-18T03:57:56;95990.94;;;5.42;74.43
61292;BME280;47165;42.664;23.368;2022-12-18T04:00:22;95980.41;;;5.50;74.34
61292;BME280;47165;42.664;23.368;2022-12-18T04:02:51;95981.00;;;5.63;73.83
61292;BME280;47165;42.664;23.368;2022-12-18T04:05:19;95966.00;;;5.77;73.34
61292;BME280;47165;42.664;23.368;2022-12-18T04:07:49;95963.50;;;5.73;73.03
61292;BME280;47165;42.664;23.368;2022-12-18T04:10:17;95982.88;;;5.56;74.03
61292;BME280;47165;42.664;23.368;2022-12-18T04:12:42;95984.25;;;5.73;72.77
61292;BME280;47165;42.664;23.368;2022-12-18T04:15:09;95983.25;;;5.78;72.50
61292;BME280;47165;42.664;23.368;2022-12-18T04:17:35;95991.69;;;5.48;73.79
61292;BME280;47165;42.664;23.368;2022-12-18T04:20:00;96005.19;;;5.21;74.44
61292;BME280;47165;42.664;23.368;2022-12-18T04:22:26;96012.50;;;4.99;75.87
61292;BME280;47165;42.664;23.368;2022-12-18T04:24:51;95997.78;;;5.01;75.29
61292;BME280;47165;42.664;23.368;2022-12-18T04:27:16;96003.88;;;5.42;73.92
61292;BME280;47165;42.664;23.368;2022-12-18T04:29:42;96010.28;;;5.24;74.18
61292;BME280;47165;42.664;23.368;2022-12-18T04:32:08;96005.97;;;5.25;74.12
61292;BME280;47165;42.664;23.368;2022-12-18T04:34:33;96017.53;;;5.49;73.15
61292;BME280;47165;42.664;23.368;2022-12-18T04:36:59;96020.72;;;5.20;73.19
61292;BME280;47165;42.664;23.368;2022-12-18T04:39:24;96025.44;;;4.98;74.60
61292;BME280;47165;42.664;23.368;2022-12-18T04:41:50;96023.84;;;4.92;74.28
61292;BME280;47165;42.664;23.368;2022-12-18T04:44:15;96022.69;;;4.60;74.57
61292;BME280;47165;42.664;23.368;2022-12-18T04:46:41;96041.06;;;4.95;74.25
61292;BME280;47165;42.664;23.368;2022-12-18T04:49:06;96044.94;;;5.19;73.14
61292;BME280;47165;42.664;23.368;2022-12-18T04:51:32;96036.16;;;5.26;71.80
61292;BME280;47165;42.664;23.368;2022-12-18T04:53:57;96042.84;;;5.36;71.57
61292;BME280;47165;42.664;23.368;2022-12-18T04:56:23;96047.03;;;4.98;72.23
61292;BME280;47165;42.664;23.368;2022-12-18T04:58:48;96050.38;;;5.03;72.49
61292;BME280;47165;42.664;23.368;2022-12-18T05:01:15;96058.84;;;5.12;71.58
61292;BME280;47165;42.664;23.368;2022-12-18T05:03:41;96041.16;;;4.90;71.63
61292;BME280;47165;42.664;23.368;2022-12-18T05:06:07;96050.56;;;4.94;71.98
61292;BME280;47165;42.664;23.368;2022-12-18T05:08:33;96040.66;;;4.70;71.56
61292;BME280;47165;42.664;23.368;2022-12-18T05:11:05;96054.91;;;4.92;71.54
61292;BME280;47165;42.664;23.368;2022-12-18T05:13:31;96055.28;;;5.19;70.98
61292;BME280;47165;42.664;23.368;2022-12-18T05:15:57;96068.81;;;5.33;70.06
61292;BME280;47165;42.664;23.368;2022-12-18T05:18:23;96070.84;;;5.16;70.06
61292;BME280;47165;42.664;23.368;2022-12-18T05:20:50;96081.66;;;5.39;69.92
61292;BME280;47165;42.664;23.368;2022-12-18T05:23:15;96086.50;;;5.10;70.48
61292;BME280;47165;42.664;23.368;2022-12-18T05:25:41;96084.28;;;5.36;69.85
61292;BME280;47165;42.664;23.368;2022-12-18T05:28:06;96090.53;;;5.26;69.61
61292;BME280;47165;42.664;23.368;2022-12-18T05:30:32;96083.69;;;5.22;70.17
61292;BME280;47165;42.664;23.368;2022-12-18T05:32:57;96099.66;;;4.97;70.97
61292;BME280;47165;42.664;23.368;2022-12-18T05:35:22;96110.19;;;4.88;70.91
61292;BME280;47165;42.664;23.368;2022-12-18T05:37:48;96088.44;;;4.98;70.23
61292;BME280;47165;42.664;23.368;2022-12-18T05:40:13;96109.56;;;4.74;71.13
61292;BME280;47165;42.664;23.368;2022-12-18T05:42:39;96111.44;;;4.62;71.96
61292;BME280;47165;42.664;23.368;2022-12-18T05:45:05;96098.13;;;4.87;70.35
61292;BME280;47165;42.664;23.368;2022-12-18T05:47:30;96094.81;;;4.25;72.27
61292;BME280;47165;42.664;23.368;2022-12-18T05:49:56;96106.25;;;4.07;73.16
61292;BME280;47165;42.664;23.368;2022-12-18T05:52:22;96092.16;;;4.28;72.75
61292;BME280;47165;42.664;23.368;2022-12-18T05:54:47;96115.13;;;4.48;71.97
61292;BME280;47165;42.664;23.368;2022-12-18T05:57:13;96116.69;;;4.58;71.06
61292;BME280;47165;42.664;23.368;2022-12-18T05:59:38;96129.19;;;4.30;71.96
61292;BME280;47165;42.664;23.368;2022-12-18T06:02:04;96115.78;;;4.60;71.00
61292;BME280;47165;42.664;23.368;2022-12-18T06:04:29;96118.16;;;4.17;71.99
61292;BME280;47165;42.664;23.368;2022-12-18T06:06:54;96114.97;;;4.58;70.81
61292;BME280;47165;42.664;23.368;2022-12-18T06:09:20;96077.28;;;4.42;69.97
61292;BME280;47165;42.664;23.368;2022-12-18T06:11:45;96129.06;;;4.39;71.49
61292;BME280;47165;42.664;23.368;2022-12-18T06:14:11;96130.28;;;4.71;70.21
61292;BME280;47165;42.664;23.368;2022-12-18T06:16:37;96130.91;;;4.31;71.09
61292;BME280;47165;42.664;23.368;2022-12-18T06:19:04;96131.88;;;4.22;71.49
61292;BME280;47165;42.664;23.368;2022-12-18T06:21:29;96128.72;;;4.62;70.80
61292;BME280;47165;42.664;23.368;2022-12-18T06:23:55;96137.94;;;4.78;69.79
61292;BME280;47165;42.664;23.368;2022-12-18T06:26:20;96141.13;;;4.94;69.57
61292;BME280;47165;42.664;23.368;2022-12-18T06:28:46;96150.88;;;4.78;69.36
61292;BME280;47165;42.664;23.368;2022-12-18T06:31:12;96152.09;;;4.54;69.76
61292;BME280;47165;42.664;23.368;2022-12-18T06:33:38;96145.06;;;4.62;70.46
61292;BME280;47165;42.664;23.368;2022-12-18T06:36:09;96158.34;;;4.41;70.81
61292;BME280;47165;42.664;23.368;2022-12-18T06:38:37;96157.78;;;4.78;70.03
61292;BME280;47165;42.664;23.368;2022-12-18T06:41:09;96162.88;;;4.84;69.57
61292;BME280;47165;42.664;23.368;2022-12-18T06:43:35;96161.44;;;4.64;70.25
61292;BME280;47165;42.664;23.368;2022-12-18T06:46:02;96169.69;;;4.88;69.76
61292;BME280;47165;42.664;23.368;2022-12-18T06:48:28;96168.59;;;5.03;69.22
61292;BME280;47165;42.664;23.368;2022-12-18T06:50:54;96170.38;;;4.98;68.55
61292;BME280;47165;42.664;23.368;2022-12-18T06:53:19;96169.25;;;5.16;68.04
61292;BME280;47165;42.664;23.368;2022-12-18T06:55:44;96164.75;;;4.73;68.33
61292;BME280;47165;42.664;23.368;2022-12-18T06:58:10;96176.66;;;4.83;67.97
61292;BME280;47165;42.664;23.368;2022-12-18T07:00:35;96189.03;;;4.66;68.61
61292;BME280;47165;42.664;23.368;2022-12-18T07:03:01;96174.81;;;4.91;67.78
61292;BME280;47165;42.664;23.368;2022-12-18T07:05:26;96177.50;;;4.85;67.71
61292;BME280;47165;42.664;23.368;2022-12-18T07:07:51;96187.81;;;4.28;68.94
61292;BME280;47165;42.664;23.368;2022-12-18T07:10:17;96200.53;;;4.43;69.18
61292;BME280;47165;42.664;23.368;2022-12-18T07:12:43;96180.88;;;4.31;68.43
61292;BME280;47165;42.664;23.368;2022-12-18T07:15:09;96173.81;;;4.42;68.28
61292;BME280;47165;42.664;23.368;2022-12-18T07:17:34;96180.28;;;4.73;68.13
61292;BME280;47165;42.664;23.368;2022-12-18T07:20:00;96175.34;;;4.57;68.33
61292;BME280;47165;42.664;23.368;2022-12-18T07:22:26;96179.41;;;4.74;67.73
61292;BME280;47165;42.664;23.368;2022-12-18T07:24:51;96197.41;;;4.19;69.39
61292;BME280;47165;42.664;23.368;2022-12-18T07:27:17;96198.59;;;3.94;70.56
61292;BME280;47165;42.664;23.368;2022-12-18T07:29:42;96187.97;;;4.14;70.37
61292;BME280;47165;42.664;23.368;2022-12-18T07:32:07;96200.56;;;4.40;69.63
61292;BME280;47165;42.664;23.368;2022-12-18T07:34:33;96195.72;;;4.77;68.25
61292;BME280;47165;42.664;23.368;2022-12-18T07:36:59;96203.47;;;4.79;68.08
61292;BME280;47165;42.664;23.368;2022-12-18T07:39:24;96203.47;;;4.77;67.97
61292;BME280;47165;42.664;23.368;2022-12-18T07:41:50;96245.59;;;4.90;66.97
61292;BME280;47165;42.664;23.368;2022-12-18T07:44:38;96205.94;;;4.88;67.13
61292;BME280;47165;42.664;23.368;2022-12-18T07:47:04;96224.16;;;4.15;69.60
61292;BME280;47165;42.664;23.368;2022-12-18T07:49:29;96231.97;;;4.11;69.89
61292;BME280;47165;42.664;23.368;2022-12-18T07:51:56;96221.09;;;4.52;68.89
61292;BME280;47165;42.664;23.368;2022-12-18T07:54:23;96217.25;;;4.81;67.92
61292;BME280;47165;42.664;23.368;2022-12-18T07:56:48;96224.06;;;4.21;69.66
61292;BME280;47165;42.664;23.368;2022-12-18T07:59:14;96237.81;;;4.27;69.78
61292;BME280;47165;42.664;23.368;2022-12-18T08:01:39;96237.00;;;4.21;69.58
61292;BME280;47165;42.664;23.368;2022-12-18T08:04:05;96246.34;;;4.32;69.52
61292;BME280;47165;42.664;23.368;2022-12-18T08:06:30;96248.78;;;4.42;69.15
61292;BME280;47165;42.664;23.368;2022-12-18T08:08:56;96248.63;;;4.58;68.98
61292;BME280;47165;42.664;23.368;2022-12-18T08:11:23;96260.50;;;4.71;68.06
61292;BME280;47165;42.664;23.368;2022-12-18T08:13:49;96261.25;;;4.10;69.92
61292;BME280;47165;42.664;23.368;2022-12-18T08:16:14;96258.78;;;4.02;70.55
61292;BME280;47165;42.664;23.368;2022-12-18T08:18:40;96266.56;;;3.99;71.71
61292;BME280;47165;42.664;23.368;2022-12-18T08:21:09;96269.06;;;4.08;70.55
61292;BME280;47165;42.664;23.368;2022-12-18T08:23:35;96281.94;;;4.11;70.13
61292;BME280;47165;42.664;23.368;2022-12-18T08:26:00;96270.53;;;4.28;69.87
61292;BME280;47165;42.664;23.368;2022-12-18T08:28:26;96285.31;;;4.16;69.59
61292;BME280;47165;42.664;23.368;2022-12-18T08:30:52;96274.88;;;4.24;69.56
61292;BME280;47165;42.664;23.368;2022-12-18T08:33:18;96295.25;;;4.50;68.45
61292;BME280;47165;42.664;23.368;2022-12-18T08:35:43;96298.06;;;4.32;68.71
61292;BME280;47165;42.664;23.368;2022-12-18T08:38:09;96274.03;;;4.23;68.73
61292;BME280;47165;42.664;23.368;2022-12-18T08:40:34;96295.66;;;4.16;68.81
61292;BME280;47165;42.664;23.368;2022-12-18T08:42:59;96280.03;;;4.29;68.72
61292;BME280;47165;42.664;23.368;2022-12-18T08:45:43;96300.91;;;4.10;68.92
61292;BME280;47165;42.664;23.368;2022-12-18T08:48:09;96304.13;;;4.29;68.55
61292;BME280;47165;42.664;23.368;2022-12-18T08:50:34;96299.81;;;4.30;68.39
61292;BME280;47165;42.664;23.368;2022-12-18T08:53:00;96301.88;;;4.00;69.13
61292;BME280;47165;42.664;23.368;2022-12-18T08:55:26;96299.78;;;4.33;68.28
61292;BME280;47165;42.664;23.368;2022-12-18T08:57:51;96299.66;;;4.42;68.10
61292;BME280;47165;42.664;23.368;2022-12-18T09:00:17;96284.44;;;4.17;67.38
61292;BME280;47165;42.664;23.368;2022-12-18T09:02:42;96288.38;;;4.49;66.72
61292;BME280;47165;42.664;23.368;2022-12-18T09:05:08;96294.13;;;4.00;67.50
61292;BME280;47165;42.664;23.368;2022-12-18T09:07:33;96289.25;;;4.48;66.51
61292;BME280;47165;42.664;23.368;2022-12-18T09:09:59;96290.38;;;4.26;66.36
61292;BME280;47165;42.664;23.368;2022-12-18T09:12:25;96291.16;;;4.34;66.44
61292;BME280;47165;42.664;23.368;2022-12-18T09:14:50;96291.22;;;4.28;66.24
61292;BME280;47165;42.664;23.368;2022-12-18T09:17:15;96280.75;;;4.38;65.86
61292;BME280;47165;42.664;23.368;2022-12-18T09:19:41;96284.75;;;4.62;64.84
61292;BME280;47165;42.664;23.368;2022-12-18T09:22:06;96289.06;;;4.63;64.62
61292;BME280;47165;42.664;23.368;2022-12-18T09:24:32;96297.63;;;4.69;63.99
61292;BME280;47165;42.664;23.368;2022-12-18T09:26:57;96293.13;;;4.81;64.02
61292;BME280;47165;42.664;23.368;2022-12-18T09:29:23;96282.94;;;4.71;63.35
61292;BME280;47165;42.664;23.368;2022-12-18T09:31:48;96287.69;;;4.35;64.13
61292;BME280;47165;42.664;23.368;2022-12-18T09:34:14;96300.19;;;4.70;63.47
61292;BME280;47165;42.664;23.368;2022-12-18T09:36:40;96284.69;;;4.67;64.43
61292;BME280;47165;42.664;23.368;2022-12-18T09:39:05;96289.84;;;4.70;63.48
61292;BME280;47165;42.664;23.368;2022-12-18T09:44:05;96303.16;;;4.41;64.37
61292;BME280;47165;42.664;23.368;2022-12-18T09:46:39;96300.97;;;4.77;64.74
61292;BME280;47165;42.664;23.368;2022-12-18T09:49:11;96285.56;;;4.68;63.67
61292;BME280;47165;42.664;23.368;2022-12-18T09:52:07;96292.91;;;4.30;64.87
61292;BME280;47165;42.664;23.368;2022-12-18T09:55:10;96292.69;;;4.50;64.93
61292;BME280;47165;42.664;23.368;2022-12-18T09:57:35;96289.91;;;4.66;63.09
61292;BME280;47165;42.664;23.368;2022-12-18T10:00:19;96283.72;;;4.76;63.84
61292;BME280;47165;42.664;23.368;2022-12-18T10:02:46;96288.13;;;4.69;62.70
61292;BME280;47165;42.664;23.368;2022-12-18T10:05:16;96287.09;;;4.81;61.64
61292;BME280;47165;42.664;23.368;2022-12-18T10:10:40;96278.81;;;4.54;62.65
61292;BME280;47165;42.664;23.368;2022-12-18T10:13:26;96294.69;;;4.95;62.00
61292;BME280;47165;42.664;23.368;2022-12-18T10:16:19;96273.50;;;5.27;61.06
61292;BME280;47165;42.664;23.368;2022-12-18T10:19:18;96282.88;;;5.33;60.77
61292;BME280;47165;42.664;23.368;2022-12-18T10:27:18;96300.78;;;4.89;60.43
61292;BME280;47165;42.664;23.368;2022-12-18T10:29:46;96300.09;;;4.76;61.17
61292;BME280;47165;42.664;23.368;2022-12-18T10:32:24;96296.63;;;4.79;60.61
61292;BME280;47165;42.664;23.368;2022-12-18T10:34:53;96292.81;;;4.41;62.23
61292;BME280;47165;42.664;23.368;2022-12-18T10:37:25;96282.06;;;4.70;61.57
61292;BME280;47165;42.664;23.368;2022-12-18T10:40:12;96286.34;;;4.74;61.93
61292;BME280;47165;42.664;23.368;2022-12-18T10:42:38;96282.50;;;5.01;61.46
61292;BME280;47165;42.664;23.368;2022-12-18T10:45:12;96286.47;;;5.24;60.93
61292;BME280;47165;42.664;23.368;2022-12-18T10:47:43;96275.41;;;5.14;60.78
61292;BME280;47165;42.664;23.368;2022-12-18T10:50:25;96275.72;;;5.49;60.92
61292;BME280;47165;42.664;23.368;2022-12-18T10:52:54;96269.47;;;5.62;60.82
61292;BME280;47165;42.664;23.368;2022-12-18T10:55:20;96276.31;;;5.66;60.42
61292;BME280;47165;42.664;23.368;2022-12-18T10:57:46;96272.69;;;5.76;59.93
61292;BME280;47165;42.664;23.368;2022-12-18T11:02:47;96278.50;;;5.38;60.51
61292;BME280;47165;42.664;23.368;2022-12-18T11:05:27;96290.25;;;5.57;59.84
61292;BME280;47165;42.664;23.368;2022-12-18T11:07:54;96274.16;;;5.38;59.97
61292;BME280;47165;42.664;23.368;2022-12-18T11:10:21;96284.09;;;5.66;59.56
61292;BME280;47165;42.664;23.368;2022-12-18T11:12:48;96281.75;;;5.51;59.70
61292;BME280;47165;42.664;23.368;2022-12-18T11:15:20;96275.16;;;5.82;59.52
61292;BME280;47165;42.664;23.368;2022-12-18T11:17:48;96273.06;;;5.53;59.40
61292;BME280;47165;42.664;23.368;2022-12-18T11:20:32;96279.25;;;5.44;58.02
61292;BME280;47165;42.664;23.368;2022-12-18T11:23:03;96299.00;;;4.94;58.82
61292;BME280;47165;42.664;23.368;2022-12-18T11:25:30;96310.22;;;4.93;59.03
61292;BME280;47165;42.664;23.368;2022-12-18T11:28:01;96296.63;;;4.79;59.91
61292;BME280;47165;42.664;23.368;2022-12-18T11:30:34;96286.84;;;4.99;59.95
61292;BME280;47165;42.664;23.368;2022-12-18T11:33:05;96286.53;;;4.59;60.42
61292;BME280;47165;42.664;23.368;2022-12-18T11:35:52;96284.81;;;5.18;59.93
61292;BME280;47165;42.664;23.368;2022-12-18T11:38:28;96298.88;;;5.03;59.84
61292;BME280;47165;42.664;23.368;2022-12-18T11:40:59;96282.47;;;5.04;59.71
61292;BME280;47165;42.664;23.368;2022-12-18T11:43:39;96301.56;;;4.96;59.90
61292;BME280;47165;42.664;23.368;2022-12-18T11:46:23;96288.47;;;5.07;59.66
61292;BME280;47165;42.664;23.368;2022-12-18T11:48:57;96287.22;;;5.31;59.27
61292;BME280;47165;42.664;23.368;2022-12-18T11:51:29;96291.25;;;5.52;58.98
61292;BME280;47165;42.664;23.368;2022-12-18T11:53:58;96287.03;;;5.44;58.93
61292;BME280;47165;42.664;23.368;2022-12-18T11:56:35;96297.84;;;5.15;59.78
61292;BME280;47165;42.664;23.368;2022-12-18T11:59:22;96275.72;;;5.49;59.01
61292;BME280;47165;42.664;23.368;2022-12-18T12:01:59;96277.06;;;5.18;58.72
61292;BME280;47165;42.664;23.368;2022-12-18T12:05:18;96284.41;;;5.48;57.97
61292;BME280;47165;42.664;23.368;2022-12-18T12:07:52;96281.53;;;5.09;58.57
61292;BME280;47165;42.664;23.368;2022-12-18T12:21:17;96288.22;;;5.76;58.00
61292;BME280;47165;42.664;23.368;2022-12-18T12:24:37;96286.28;;;5.88;57.83
61292;BME280;47165;42.664;23.368;2022-12-18T12:26:41;96290.75;;;5.79;58.19
61292;BME280;47165;42.664;23.368;2022-12-18T12:31:56;96288.56;;;5.55;57.75
61292;BME280;47165;42.664;23.368;2022-12-18T12:34:49;96293.19;;;5.37;58.30
61292;BME280;47165;42.664;23.368;2022-12-18T12:40:03;96305.34;;;5.87;57.95
61292;BME280;47165;42.664;23.368;2022-12-18T12:42:36;96288.69;;;6.00;57.58
61292;BME280;47165;42.664;23.368;2022-12-18T12:45:39;96289.25;;;6.17;57.37
61292;BME280;47165;42.664;23.368;2022-12-18T12:48:14;96284.91;;;6.18;57.30
61292;BME280;47165;42.664;23.368;2022-12-18T12:50:41;96290.06;;;6.19;57.10
61292;BME280;47165;42.664;23.368;2022-12-18T12:53:09;96293.41;;;6.24;56.71
61292;BME280;47165;42.664;23.368;2022-12-18T12:55:39;96303.69;;;5.82;57.35
61292;BME280;47165;42.664;23.368;2022-12-18T13:06:36;96313.00;;;5.40;59.46
61292;BME280;47165;42.664;23.368;2022-12-18T13:09:02;96312.72;;;5.58;59.22
61292;BME280;47165;42.664;23.368;2022-12-18T13:11:47;96313.06;;;5.88;58.54
61292;BME280;47165;42.664;23.368;2022-12-18T13:14:32;96332.69;;;6.04;58.94
61292;BME280;47165;42.664;23.368;2022-12-18T13:22:39;96325.53;;;5.66;58.38
61292;BME280;47165;42.664;23.368;2022-12-18T13:25:31;96323.38;;;5.37;59.21
61292;BME280;47165;42.664;23.368;2022-12-18T13:28:01;96333.50;;;5.54;58.68
61292;BME280;47165;42.664;23.368;2022-12-18T13:46:04;96340.41;;;6.09;57.72
61292;BME280;47165;42.664;23.368;2022-12-18T13:48:32;96345.72;;;6.00;57.40
61292;BME280;47165;42.664;23.368;2022-12-18T13:51:02;96349.75;;;6.18;57.99
61292;BME280;47165;42.664;23.368;2022-12-18T13:53:57;96353.59;;;5.39;59.38
61292;BME280;47165;42.664;23.368;2022-12-18T13:56:30;96356.75;;;5.60;59.12
61292;BME280;47165;42.664;23.368;2022-12-18T13:59:19;96364.06;;;5.86;59.33
61292;BME280;47165;42.664;23.368;2022-12-18T14:01:48;96368.13;;;6.04;58.96
61292;BME280;47165;42.664;23.368;2022-12-18T14:06:55;96381.16;;;5.43;59.43
61292;BME280;47165;42.664;23.368;2022-12-18T14:09:28;96378.09;;;5.14;60.08
61292;BME280;47165;42.664;23.368;2022-12-18T14:11:56;96371.66;;;5.44;59.18
61292;BME280;47165;42.664;23.368;2022-12-18T14:14:47;96361.19;;;5.50;59.10
61292;BME280;47165;42.664;23.368;2022-12-18T14:17:14;96368.06;;;5.51;58.74
61292;BME280;47165;42.664;23.368;2022-12-18T14:19:42;96370.47;;;5.65;59.15
61292;BME280;47165;42.664;23.368;2022-12-18T14:22:18;96377.97;;;5.82;58.21
61292;BME280;47165;42.664;23.368;2022-12-18T14:24:45;96374.47;;;5.84;57.73
61292;BME280;47165;42.664;23.368;2022-12-18T14:27:37;96379.75;;;5.78;57.93
61292;BME280;47165;42.664;23.368;2022-12-18T14:30:24;96379.50;;;5.39;57.59
61292;BME280;47165;42.664;23.368;2022-12-18T14:33:11;96374.78;;;5.66;56.99
61292;BME280;47165;42.664;23.368;2022-12-18T14:35:43;96380.09;;;5.57;57.09